Time;durP1;ratioP1;P1;durP2;ratioP2;P2;SDS_P1;SDS_P2;PMS_P1;PMS_P2;Temp;Humidity;BMP_temperature;BMP_pressure;BME280_temperature;BME280_humidity;BME280_pressure;Samples;Min_cycle;Max_cycle;Signal;HPM_P1;HPM_P2
2022/02/10 00:17:14;;;;;;;;;;;0.80;99.90;;;;;;4115316;28;19954;-53
2022/02/10 00:21:27;;;;;;;;;;;0.70;99.90;;;;;;4095973;28;19941;-52
2022/02/10 00:34:52;;;;;;;;;;;0.30;99.90;;;;;;4101185;28;19993;-53
2022/02/10 00:39:13;;;;;;;;;;;0.30;99.90;;;;;;4175477;28;19972;-52
2022/02/10 00:41:16;;;;;;;;;;;0.30;99.90;;;;;;4168134;28;20011;-52
2022/02/10 00:43:18;;;;;;;;;;;0.20;99.90;;;;;;4170074;28;20027;-52
2022/02/10 00:45:21;;;;;;;;;;;0.20;99.90;;;;;;4163262;28;20019;-52
2022/02/10 00:47:25;;;;;;;;;;;0.00;99.90;;;;;;4175605;28;20023;-53
2022/02/10 00:49:27;;;;;;;;;;;-0.10;99.90;;;;;;4177041;28;19964;-53
2022/02/10 00:51:29;;;;;;;;;;;0.00;99.90;;;;;;4179499;28;19972;-53
2022/02/10 00:53:32;;;;;;;;;;;0.10;99.90;;;;;;4177199;28;20024;-52
2022/02/10 00:55:37;;;;;;;;;;;0.30;99.90;;;;;;4167316;28;20522;-54
2022/02/10 00:57:39;;;;;;;;;;;0.20;99.90;;;;;;4164779;28;20415;-52
2022/02/10 01:13:57;;;;;;;;;;;0.00;99.90;;;;;;4170432;28;20023;-54
2022/02/10 01:29:47;;;;;;;;;;;-0.10;99.90;;;;;;4184361;28;19978;-52
2022/02/10 01:31:49;;;;;;;;;;;0.00;99.90;;;;;;4162358;28;19962;-53
2022/02/10 01:33:51;;;;;;;;;;;-0.20;99.90;;;;;;4173699;28;20363;-53
2022/02/10 01:35:53;;;;;;;;;;;-0.20;99.90;;;;;;4177520;28;19924;-53
2022/02/10 01:37:55;;;;;;;;;;;-0.20;99.90;;;;;;4169796;28;19975;-52
2022/02/10 01:40:07;;;;;;;;;;;-0.40;99.90;;;;;;4170744;28;19929;-54
2022/02/10 02:04:02;;;;;;;;;;;-0.50;99.90;;;;;;4170021;28;19948;-48
2022/02/10 02:06:10;;;;;;;;;;;-0.70;99.90;;;;;;4166514;28;19929;-50
2022/02/10 02:08:14;;;;;;;;;;;-0.70;99.90;;;;;;4175078;28;20415;-49
2022/02/10 02:10:16;;;;;;;;;;;-0.70;99.90;;;;;;4173487;28;20019;-48
2022/02/10 02:12:18;;;;;;;;;;;-0.70;99.90;;;;;;4178669;28;19979;-48
2022/02/10 02:14:22;;;;;;;;;;;-0.70;99.90;;;;;;4166472;28;19936;-47
2022/02/10 02:16:26;;;;;;;;;;;-0.60;99.90;;;;;;4167250;28;20515;-49
2022/02/10 02:18:28;;;;;;;;;;;-0.70;99.90;;;;;;4169972;28;19929;-49
2022/02/10 02:20:29;;;;;;;;;;;-0.60;99.90;;;;;;4175971;28;20020;-50
2022/02/10 02:22:31;;;;;;;;;;;-0.60;99.90;;;;;;4170859;28;20380;-49
2022/02/10 02:24:34;;;;;;;;;;;-0.60;99.90;;;;;;4163754;28;19943;-51
2022/02/10 02:26:37;;;;;;;;;;;-0.60;99.90;;;;;;4173057;28;19929;-50
2022/02/10 02:28:44;;;;;;;;;;;-0.70;99.90;;;;;;4171791;28;20412;-50
2022/02/10 02:30:54;;;;;;;;;;;-0.80;99.90;;;;;;4168780;28;20412;-48
2022/02/10 03:06:18;;;;;;;;;;;-1.30;99.90;;;;;;4171505;28;20027;-48
2022/02/10 03:08:37;;;;;;;;;;;-1.20;99.90;;;;;;4171783;28;20055;-49
2022/02/10 03:12:47;;;;;;;;;;;-1.20;99.90;;;;;;4167130;28;19929;-48
2022/02/10 03:14:53;;;;;;;;;;;-1.20;99.90;;;;;;4173237;28;19983;-51
2022/02/10 03:19:16;;;;;;;;;;;-1.40;99.90;;;;;;4170081;28;20564;-51
2022/02/10 04:10:07;;;;;;;;;;;-1.50;99.90;;;;;;4168829;28;19925;-51
2022/02/10 04:14:38;;;;;;;;;;;-1.50;99.90;;;;;;4176026;28;20424;-50
2022/02/10 04:16:46;;;;;;;;;;;-1.40;99.90;;;;;;4178990;28;20377;-52
2022/02/10 04:38:00;;;;;;;;;;;-1.40;99.90;;;;;;4165923;28;19932;-49
2022/02/10 05:15:38;;;;;;;;;;;-1.30;99.90;;;;;;4171886;28;19932;-50
2022/02/10 05:17:55;;;;;;;;;;;-1.30;99.90;;;;;;4177170;28;20039;-49
2022/02/10 05:33:49;;;;;;;;;;;-1.10;99.90;;;;;;4174097;28;20750;-51
2022/02/10 05:35:56;;;;;;;;;;;-1.10;99.90;;;;;;4178020;28;20394;-51
2022/02/10 05:40:12;;;;;;;;;;;-1.10;99.90;;;;;;4164386;28;19925;-50
2022/02/10 05:55:57;;;;;;;;;;;-0.90;99.90;;;;;;4144037;28;19930;-52
2022/02/10 06:55:52;;;;;;;;;;;-0.70;99.90;;;;;;4176213;28;20349;-50
2022/02/10 07:53:04;;;;;;;;;;;-0.20;99.90;;;;;;4167026;28;19967;-53
2022/02/10 08:49:43;;;;;;;;;;;0.80;99.90;;;;;;4174617;28;19964;-52
2022/02/10 09:15:24;;;;;;;;;;;2.40;99.90;;;;;;4178457;28;20019;-53
2022/02/10 10:02:21;;;;;;;;;;;4.50;99.90;;;;;;4176761;28;19931;-54
2022/02/10 10:04:30;;;;;;;;;;;4.60;99.90;;;;;;4176287;28;19933;-53
2022/02/10 10:06:51;;;;;;;;;;;4.70;99.90;;;;;;4178671;28;20397;-55
2022/02/10 10:14:09;;;;;;;;;;;5.20;99.90;;;;;;4175779;28;20401;-54
2022/02/10 10:16:35;;;;;;;;;;;5.30;99.90;;;;;;4175305;28;20368;-54
2022/02/10 10:18:56;;;;;;;;;;;5.40;99.90;;;;;;4174529;28;19974;-54
2022/02/10 10:23:40;;;;;;;;;;;5.60;99.90;;;;;;4175777;28;20401;-54
2022/02/10 10:26:12;;;;;;;;;;;5.60;99.90;;;;;;4178227;28;20055;-55
2022/02/10 10:49:56;;;;;;;;;;;7.60;99.90;;;;;;4172464;28;19925;-55
2022/02/10 10:56:44;;;;;;;;;;;8.10;99.90;;;;;;4166354;28;19936;-54
2022/02/10 11:38:31;;;;;;;;;;;11.70;99.90;;;;;;4161968;28;19939;-54
2022/02/10 11:40:53;;;;;;;;;;;11.80;99.90;;;;;;4171948;28;20490;-55
2022/02/10 11:43:26;;;;;;;;;;;11.80;99.90;;;;;;4165052;28;20015;-55
2022/02/10 11:46:08;;;;;;;;;;;11.80;99.90;;;;;;4173412;28;20473;-54
2022/02/10 12:01:01;;;;;;;;;;;13.10;99.90;;;;;;4168305;28;20356;-56
2022/02/10 12:29:28;;;;;;;;;;;13.10;99.90;;;;;;4164573;28;20404;-55
2022/02/10 12:37:00;;;;;;;;;;;14.30;99.90;;;;;;4177845;28;19959;-55
2022/02/10 12:44:12;;;;;;;;;;;15.30;99.90;;;;;;4170982;28;20028;-56
2022/02/10 13:36:06;;;;;;;;;;;16.00;94.10;;;;;;4174965;28;19928;-53
2022/02/10 13:48:17;;;;;;;;;;;15.80;93.40;;;;;;4170255;28;19935;-54
2022/02/10 14:09:19;;;;;;;;;;;15.50;92.80;;;;;;4174442;28;19975;-52
2022/02/10 14:13:54;;;;;;;;;;;15.40;93.60;;;;;;4175735;28;20027;-53
2022/02/10 14:22:50;;;;;;;;;;;15.60;92.80;;;;;;4164960;28;19936;-53
2022/02/10 14:27:14;;;;;;;;;;;15.70;92.50;;;;;;4173182;28;19929;-53
2022/02/10 14:29:16;;;;;;;;;;;15.70;92.70;;;;;;4163319;28;20411;-54
2022/02/10 14:31:18;;;;;;;;;;;15.70;92.80;;;;;;4174051;28;20019;-53
2022/02/10 14:33:27;;;;;;;;;;;15.60;92.80;;;;;;4174670;28;20416;-54
2022/02/10 14:35:36;;;;;;;;;;;15.50;92.60;;;;;;4178196;28;19933;-52
2022/02/10 14:38:38;;;;;;;;;;;15.10;92.70;;;;;;4166382;28;19929;-54
2022/02/10 15:32:20;;;;;;;;;;;13.40;96.00;;;;;;4165194;28;19951;-53
2022/02/10 15:35:34;;;;;;;;;;;13.30;95.90;;;;;;4168468;28;19960;-53
2022/02/10 15:49:54;;;;;;;;;;;13.20;96.40;;;;;;4170056;28;19984;-53
2022/02/10 15:57:01;;;;;;;;;;;13.00;96.40;;;;;;4163260;28;20595;-53
2022/02/10 16:11:04;;;;;;;;;;;12.50;97.20;;;;;;4166715;28;19925;-53
2022/02/10 16:14:40;;;;;;;;;;;12.40;97.30;;;;;;4170768;28;19933;-51
2022/02/10 16:17:43;;;;;;;;;;;12.10;97.60;;;;;;4173618;28;20015;-53
2022/02/10 16:19:47;;;;;;;;;;;11.90;98.10;;;;;;4171082;28;19959;-52
2022/02/10 16:22:01;;;;;;;;;;;11.70;98.20;;;;;;4164498;28;19969;-53
2022/02/10 16:24:14;;;;;;;;;;;11.60;98.00;;;;;;4172369;28;19960;-53
2022/02/10 16:26:21;;;;;;;;;;;11.50;98.20;;;;;;4173819;28;20380;-52
2022/02/10 16:28:27;;;;;;;;;;;11.40;98.70;;;;;;4162304;28;19979;-52
2022/02/10 16:30:28;;;;;;;;;;;11.30;99.10;;;;;;4160345;28;19935;-55
2022/02/10 16:32:35;;;;;;;;;;;11.10;99.10;;;;;;4173195;28;19964;-54
2022/02/10 16:34:43;;;;;;;;;;;11.10;99.10;;;;;;4166036;28;19983;-54
2022/02/10 16:36:53;;;;;;;;;;;11.10;99.30;;;;;;4165099;28;19979;-55
2022/02/10 16:39:00;;;;;;;;;;;10.90;99.90;;;;;;4166770;28;20446;-54
2022/02/10 16:41:07;;;;;;;;;;;10.70;99.90;;;;;;4164613;28;20381;-54
2022/02/10 16:43:13;;;;;;;;;;;10.50;99.90;;;;;;4167293;28;20428;-54
2022/02/10 16:45:20;;;;;;;;;;;10.10;99.90;;;;;;4159167;28;19951;-53
2022/02/10 16:47:27;;;;;;;;;;;9.90;99.90;;;;;;4162306;28;19983;-54
2022/02/10 16:49:34;;;;;;;;;;;9.90;99.90;;;;;;4165127;28;19929;-55
2022/02/10 16:51:44;;;;;;;;;;;9.70;99.90;;;;;;4162344;28;19925;-55
2022/02/10 16:53:57;;;;;;;;;;;9.60;99.90;;;;;;4160065;28;20345;-54
2022/02/10 16:56:09;;;;;;;;;;;9.70;99.90;;;;;;4167435;28;20397;-54
2022/02/10 17:01:13;;;;;;;;;;;9.70;99.90;;;;;;4159802;28;20012;-54
2022/02/10 17:03:32;;;;;;;;;;;9.60;99.90;;;;;;4166762;28;19971;-51
2022/02/10 17:16:10;;;;;;;;;;;9.60;99.90;;;;;;4171624;28;19932;-51
2022/02/10 17:17:59;;;;;;;;;;;9.60;99.90;;;;;;4171804;28;20508;-51
2022/02/10 17:29:12;;;;;;;;;;;9.40;99.90;;;;;;4163044;28;19925;-51
2022/02/10 17:33:53;;;;;;;;;;;8.50;99.90;;;;;;4168495;28;19936;-52
2022/02/10 17:36:05;;;;;;;;;;;8.30;99.90;;;;;;4171111;28;19960;-51
2022/02/10 17:54:14;;;;;;;;;;;8.20;99.90;;;;;;4165527;28;19933;-51
2022/02/10 17:56:16;;;;;;;;;;;7.90;99.90;;;;;;4166694;28;19932;-49
2022/02/10 17:58:22;;;;;;;;;;;7.70;99.90;;;;;;4164640;28;20015;-50
2022/02/10 18:00:26;;;;;;;;;;;7.60;99.90;;;;;;4173245;28;20032;-51
2022/02/10 18:02:28;;;;;;;;;;;7.90;99.90;;;;;;4164555;28;19933;-50
2022/02/10 18:04:30;;;;;;;;;;;8.00;99.90;;;;;;4169778;28;20440;-49
2022/02/10 18:06:38;;;;;;;;;;;8.00;99.90;;;;;;4168731;28;20408;-51
2022/02/10 18:09:01;;;;;;;;;;;7.80;99.90;;;;;;4173894;28;19964;-51
2022/02/10 18:13:33;;;;;;;;;;;7.50;99.90;;;;;;4181923;28;19932;-49
2022/02/10 18:15:41;;;;;;;;;;;7.70;99.90;;;;;;4176778;28;19933;-51
2022/02/10 18:17:49;;;;;;;;;;;7.70;99.90;;;;;;4164906;28;19924;-49
2022/02/10 18:19:56;;;;;;;;;;;7.90;99.90;;;;;;4173350;28;19928;-52
2022/02/10 18:24:28;;;;;;;;;;;8.10;99.90;;;;;;4166639;28;19976;-49
2022/02/10 18:27:19;;;;;;;;;;;8.20;99.90;;;;;;4171561;28;20476;-51
2022/02/10 18:29:00;;;;;;;;;;;8.10;99.90;;;;;;4166862;28;19968;-50
2022/02/10 19:02:12;;;;;;;;;;;5.80;99.90;;;;;;4161811;28;19933;-53
2022/02/10 19:08:47;;;;;;;;;;;5.90;99.90;;;;;;4165971;28;19968;-51
2022/02/10 19:10:56;;;;;;;;;;;6.00;99.90;;;;;;4163522;28;20027;-51
2022/02/10 19:13:00;;;;;;;;;;;6.00;99.90;;;;;;4170730;28;19937;-48
2022/02/10 19:15:10;;;;;;;;;;;5.90;99.90;;;;;;4176231;28;20377;-50
2022/02/10 19:17:12;;;;;;;;;;;5.70;99.90;;;;;;4174189;28;20058;-51
2022/02/10 19:19:15;;;;;;;;;;;5.60;99.90;;;;;;4174762;28;20358;-50
2022/02/10 19:21:17;;;;;;;;;;;5.50;99.90;;;;;;4176630;28;19928;-51
2022/02/10 19:23:19;;;;;;;;;;;5.40;99.90;;;;;;4170664;28;19936;-50
2022/02/10 19:25:21;;;;;;;;;;;5.40;99.90;;;;;;4166380;28;19925;-51
2022/02/10 19:27:23;;;;;;;;;;;5.40;99.90;;;;;;4164598;28;19965;-51
2022/02/10 19:29:25;;;;;;;;;;;5.50;99.90;;;;;;4167910;28;19956;-51
2022/02/10 19:31:34;;;;;;;;;;;5.60;99.90;;;;;;4171383;28;19960;-52
2022/02/10 19:33:36;;;;;;;;;;;5.50;99.90;;;;;;4171822;28;19978;-51
2022/02/10 19:35:44;;;;;;;;;;;5.40;99.90;;;;;;4173845;28;20016;-49
2022/02/10 19:37:47;;;;;;;;;;;5.50;99.90;;;;;;4175951;28;19932;-51
2022/02/10 19:39:57;;;;;;;;;;;5.40;99.90;;;;;;4175805;28;20019;-49
2022/02/10 19:41:58;;;;;;;;;;;5.40;99.90;;;;;;4169082;28;20019;-48
2022/02/10 19:44:01;;;;;;;;;;;5.20;99.90;;;;;;4168887;28;19933;-49
2022/02/10 19:46:06;;;;;;;;;;;5.00;99.90;;;;;;4168115;28;19987;-48
2022/02/10 19:48:09;;;;;;;;;;;4.80;99.90;;;;;;4166593;28;20376;-48
2022/02/10 19:50:14;;;;;;;;;;;4.60;99.90;;;;;;4162219;28;19940;-51
2022/02/10 19:52:18;;;;;;;;;;;4.50;99.90;;;;;;4165826;28;19939;-51
2022/02/10 19:54:26;;;;;;;;;;;4.50;99.90;;;;;;4169030;28;20435;-51
2022/02/10 19:56:29;;;;;;;;;;;4.60;99.90;;;;;;4175727;28;19932;-49
2022/02/10 19:58:31;;;;;;;;;;;4.60;99.90;;;;;;4176561;28;20023;-50
2022/02/10 20:00:41;;;;;;;;;;;4.50;99.90;;;;;;4171001;28;19933;-51
2022/02/10 20:02:43;;;;;;;;;;;4.50;99.90;;;;;;4174699;28;19925;-52
2022/02/10 20:04:49;;;;;;;;;;;4.30;99.90;;;;;;4162396;28;20337;-51
2022/02/10 20:06:52;;;;;;;;;;;4.40;99.90;;;;;;4171521;28;19935;-50
2022/02/10 20:08:54;;;;;;;;;;;4.40;99.90;;;;;;4176360;28;20674;-51
2022/02/10 20:10:56;;;;;;;;;;;4.50;99.90;;;;;;4169351;28;19929;-50
2022/02/10 20:12:58;;;;;;;;;;;4.50;99.90;;;;;;4169963;28;20031;-50
2022/02/10 20:15:00;;;;;;;;;;;4.40;99.90;;;;;;4167076;28;20411;-51
2022/02/10 20:17:02;;;;;;;;;;;4.50;99.90;;;;;;4167744;28;19925;-51
2022/02/10 20:19:08;;;;;;;;;;;4.30;99.90;;;;;;4170309;28;19929;-48
2022/02/10 20:21:11;;;;;;;;;;;4.30;99.90;;;;;;4175615;28;20456;-51
2022/02/10 20:23:13;;;;;;;;;;;4.00;99.90;;;;;;4168714;28;20019;-51
2022/02/10 20:25:36;;;;;;;;;;;3.70;99.90;;;;;;4169767;28;19925;-51
2022/02/10 20:27:38;;;;;;;;;;;3.60;99.90;;;;;;4165755;28;19936;-51
2022/02/10 20:29:39;;;;;;;;;;;3.50;99.90;;;;;;4173757;28;19935;-48
2022/02/10 20:31:41;;;;;;;;;;;3.60;99.90;;;;;;4166430;28;19979;-50
2022/02/10 20:33:44;;;;;;;;;;;3.50;99.90;;;;;;4165251;28;19931;-49
2022/02/10 20:35:50;;;;;;;;;;;3.60;99.90;;;;;;4172345;28;19929;-51
2022/02/10 20:37:58;;;;;;;;;;;3.80;99.90;;;;;;4174817;28;20400;-47
2022/02/10 20:40:03;;;;;;;;;;;3.50;99.90;;;;;;4170918;28;20469;-48
2022/02/10 20:42:10;;;;;;;;;;;3.60;99.90;;;;;;4166730;28;19933;-51
2022/02/10 20:44:12;;;;;;;;;;;3.60;99.90;;;;;;4164383;28;19928;-47
2022/02/10 20:46:17;;;;;;;;;;;3.50;99.90;;;;;;4180129;28;20297;-51
2022/02/10 20:48:19;;;;;;;;;;;3.50;99.90;;;;;;4174090;28;20028;-51
2022/02/10 20:50:21;;;;;;;;;;;3.40;99.90;;;;;;4169500;28;19930;-48
2022/02/10 20:52:24;;;;;;;;;;;3.50;99.90;;;;;;4169540;28;19924;-50
2022/02/10 20:54:28;;;;;;;;;;;3.60;99.90;;;;;;4174741;28;19967;-50
2022/02/10 20:56:30;;;;;;;;;;;3.60;99.90;;;;;;4178177;28;19933;-51
2022/02/10 20:58:32;;;;;;;;;;;3.60;99.90;;;;;;4175521;28;20019;-50
2022/02/10 21:00:34;;;;;;;;;;;3.60;99.90;;;;;;4176819;28;19960;-51
2022/02/10 21:02:41;;;;;;;;;;;3.70;99.90;;;;;;4173153;28;19935;-51
2022/02/10 21:06:57;;;;;;;;;;;3.30;99.90;;;;;;4176939;28;19928;-50
2022/02/10 21:09:02;;;;;;;;;;;3.30;99.90;;;;;;4174283;28;19979;-50
2022/02/10 21:11:04;;;;;;;;;;;3.40;99.90;;;;;;4178261;28;19964;-51
2022/02/10 21:13:08;;;;;;;;;;;3.30;99.90;;;;;;4176388;28;20411;-47
2022/02/10 21:15:17;;;;;;;;;;;3.20;99.90;;;;;;4175495;28;19936;-50
2022/02/10 21:17:24;;;;;;;;;;;3.20;99.90;;;;;;4163019;28;19925;-51
2022/02/10 21:19:26;;;;;;;;;;;3.30;99.90;;;;;;4176388;28;20014;-51
2022/02/10 21:21:28;;;;;;;;;;;3.40;99.90;;;;;;4176290;28;19951;-50
2022/02/10 21:23:59;;;;;;;;;;;3.20;99.90;;;;;;4179942;28;19932;-51
2022/02/10 21:25:56;;;;;;;;;;;3.10;99.90;;;;;;4178644;28;20456;-48
2022/02/10 21:28:03;;;;;;;;;;;3.00;99.90;;;;;;4176029;28;19924;-51
2022/02/10 21:30:07;;;;;;;;;;;2.90;99.90;;;;;;4178883;28;20436;-48
2022/02/10 21:32:08;;;;;;;;;;;2.70;99.90;;;;;;4177832;28;20440;-48
2022/02/10 21:34:19;;;;;;;;;;;2.80;99.90;;;;;;4173936;28;20532;-51
2022/02/10 21:38:33;;;;;;;;;;;2.70;99.90;;;;;;4179136;28;19960;-48
2022/02/10 21:44:25;;;;;;;;;;;2.60;99.90;;;;;;4176584;28;19924;-48
2022/02/10 22:04:16;;;;;;;;;;;2.40;99.90;;;;;;4176916;28;20019;-50
2022/02/10 22:06:31;;;;;;;;;;;2.40;99.90;;;;;;4169155;28;20020;-50
2022/02/10 22:20:29;;;;;;;;;;;1.80;99.90;;;;;;4168063;28;19932;-51
2022/02/10 22:22:37;;;;;;;;;;;1.80;99.90;;;;;;4178565;28;19968;-51
2022/02/10 22:24:39;;;;;;;;;;;1.80;99.90;;;;;;4173295;28;19957;-49
2022/02/10 22:26:47;;;;;;;;;;;1.90;99.90;;;;;;4168563;28;20308;-48
2022/02/10 22:31:08;;;;;;;;;;;1.90;99.90;;;;;;4173475;28;20300;-51
2022/02/10 22:35:54;;;;;;;;;;;1.60;99.90;;;;;;4156703;28;19968;-48
2022/02/10 22:37:57;;;;;;;;;;;1.50;99.90;;;;;;4161592;28;19925;-46
2022/02/10 22:40:00;;;;;;;;;;;1.40;99.90;;;;;;4174377;28;19925;-48
2022/02/10 22:42:25;;;;;;;;;;;1.30;99.90;;;;;;4169205;28;19928;-48
2022/02/10 22:44:27;;;;;;;;;;;1.30;99.90;;;;;;4170385;28;19956;-47
2022/02/10 22:46:29;;;;;;;;;;;1.30;99.90;;;;;;4177242;28;20399;-47
2022/02/10 22:48:31;;;;;;;;;;;1.30;99.90;;;;;;4175967;28;19983;-48
2022/02/10 22:50:33;;;;;;;;;;;1.20;99.90;;;;;;4171300;28;19925;-49
2022/02/10 22:52:35;;;;;;;;;;;1.20;99.90;;;;;;4175001;28;20028;-47
2022/02/10 22:54:37;;;;;;;;;;;1.30;99.90;;;;;;4170372;28;19968;-48
2022/02/10 22:56:39;;;;;;;;;;;1.30;99.90;;;;;;4161168;28;19951;-48
2022/02/10 22:58:41;;;;;;;;;;;1.30;99.90;;;;;;4175047;28;19933;-48
2022/02/10 23:00:47;;;;;;;;;;;1.20;99.90;;;;;;4165782;28;19974;-51
2022/02/10 23:02:49;;;;;;;;;;;1.10;99.90;;;;;;4175410;28;19929;-47
2022/02/10 23:04:51;;;;;;;;;;;1.10;99.90;;;;;;4173964;28;19925;-51
2022/02/10 23:06:57;;;;;;;;;;;1.10;99.90;;;;;;4172282;28;19936;-48
2022/02/10 23:09:23;;;;;;;;;;;1.10;99.90;;;;;;4162181;28;19932;-50
2022/02/10 23:11:28;;;;;;;;;;;1.10;99.90;;;;;;4176845;28;19995;-49
2022/02/10 23:13:32;;;;;;;;;;;1.20;99.90;;;;;;4174228;28;20019;-49
2022/02/10 23:15:38;;;;;;;;;;;1.10;99.90;;;;;;4176077;28;19939;-49
2022/02/10 23:17:40;;;;;;;;;;;1.20;99.90;;;;;;4175486;28;20627;-47
2022/02/10 23:19:42;;;;;;;;;;;1.10;99.90;;;;;;4172159;28;19964;-50
2022/02/10 23:21:44;;;;;;;;;;;1.20;99.90;;;;;;4160609;28;20305;-48
2022/02/10 23:23:48;;;;;;;;;;;1.20;99.90;;;;;;4176538;28;20353;-50
2022/02/10 23:25:51;;;;;;;;;;;1.10;99.90;;;;;;4175612;28;19975;-51
2022/02/10 23:27:53;;;;;;;;;;;1.10;99.90;;;;;;4176624;28;19974;-50
2022/02/10 23:29:55;;;;;;;;;;;1.00;99.90;;;;;;4166031;28;19932;-51
2022/02/10 23:31:56;;;;;;;;;;;0.80;99.90;;;;;;4165930;28;19971;-49
2022/02/10 23:34:02;;;;;;;;;;;0.70;99.90;;;;;;4177468;28;20300;-50
2022/02/10 23:38:11;;;;;;;;;;;0.40;99.90;;;;;;4173812;28;20020;-50
2022/02/10 23:40:13;;;;;;;;;;;0.40;99.90;;;;;;4174849;28;19929;-50
2022/02/10 23:42:25;;;;;;;;;;;0.40;99.90;;;;;;4174879;28;19924;-51
2022/02/10 23:44:31;;;;;;;;;;;0.40;99.90;;;;;;4173907;28;20015;-50
2022/02/10 23:46:33;;;;;;;;;;;0.50;99.90;;;;;;4176117;28;20028;-48
2022/02/10 23:48:35;;;;;;;;;;;0.60;99.90;;;;;;4175623;28;19925;-47
2022/02/10 23:50:37;;;;;;;;;;;0.70;99.90;;;;;;4174028;28;19971;-50
2022/02/10 23:52:41;;;;;;;;;;;0.70;99.90;;;;;;4176434;28;20352;-50
2022/02/10 23:54:45;;;;;;;;;;;0.60;99.90;;;;;;4165864;28;20031;-50
2022/02/10 23:56:54;;;;;;;;;;;0.60;99.90;;;;;;4167820;28;19924;-50
2022/02/10 23:59:04;;;;;;;;;;;0.60;99.90;;;;;;4160581;28;20023;-49
